createdAt,value
2018-12-14T00:01:50.458Z,96680.97
2018-12-14T00:04:17.948Z,96690.89
2018-12-14T00:06:45.430Z,96686.23
2018-12-14T00:09:12.846Z,96682.34
2018-12-14T00:11:45.568Z,96692.41
2018-12-14T00:14:07.772Z,96699.38
2018-12-14T00:16:36.208Z,96700.06
2018-12-14T00:19:03.627Z,96695.59
2018-12-14T00:21:31.869Z,96693.80
2018-12-14T00:23:59.288Z,96706.30
2018-12-14T00:26:26.709Z,96699.14
2018-12-14T00:28:54.515Z,96706.42
2018-12-14T00:31:21.941Z,96711.30
2018-12-14T00:33:49.385Z,96708.33
2018-12-14T00:36:17.791Z,96705.44
2018-12-14T00:38:45.205Z,96708.23
2018-12-14T00:41:12.637Z,96709.49
2018-12-14T00:43:40.051Z,96715.03
2018-12-14T00:46:07.479Z,96711.78
2018-12-14T00:48:34.883Z,96715.16
2018-12-14T00:51:02.408Z,96714.02
2018-12-14T00:53:29.917Z,96708.84
2018-12-14T00:55:57.403Z,96710.05
2018-12-14T00:58:24.802Z,96706.08
2018-12-14T01:00:52.251Z,96707.43
2018-12-14T01:03:19.691Z,96717.33
2018-12-14T01:05:47.107Z,96715.93
2018-12-14T01:08:14.512Z,96727.64
2018-12-14T01:10:41.974Z,96726.48
2018-12-14T01:13:09.396Z,96724.63
2018-12-14T01:15:36.795Z,96731.17
2018-12-14T01:18:05.910Z,96732.14
2018-12-14T01:20:33.385Z,96729.48
2018-12-14T01:23:00.784Z,96733.03
2018-12-14T01:25:28.187Z,96741.84
2018-12-14T01:27:55.623Z,96735.15
2018-12-14T01:30:23.311Z,96741.55
2018-12-14T01:32:50.727Z,96738.45
2018-12-14T01:35:18.152Z,96740.59
2018-12-14T01:37:45.550Z,96743.30
2018-12-14T01:40:13.605Z,96742.50
2018-12-14T01:42:41.033Z,96742.50
2018-12-14T01:45:08.419Z,96744.72
2018-12-14T01:47:35.840Z,96752.80
2018-12-14T01:50:03.268Z,96740.94
2018-12-14T01:52:30.689Z,96745.96
2018-12-14T01:54:58.144Z,96746.53
2018-12-14T01:57:25.540Z,96744.54
2018-12-14T01:59:52.946Z,96750.51
2018-12-14T02:02:20.394Z,96751.80
2018-12-14T02:04:47.911Z,96758.88
2018-12-14T02:07:15.376Z,96752.17
2018-12-14T02:09:42.829Z,96744.06
2018-12-14T02:12:11.377Z,96752.72
2018-12-14T02:14:37.796Z,96754.94
2018-12-14T02:17:05.232Z,96752.22
2018-12-14T02:19:32.726Z,96753.56
2018-12-14T02:22:00.441Z,96752.80
2018-12-14T02:24:28.854Z,96745.27
2018-12-14T02:26:56.401Z,96750.64
2018-12-14T02:29:23.800Z,96740.66
2018-12-14T02:31:51.227Z,96746.48
2018-12-14T02:34:18.669Z,96744.77
2018-12-14T02:36:46.207Z,96755.69
2018-12-14T02:39:13.709Z,96756.38
2018-12-14T02:41:41.058Z,96751.66
2018-12-14T02:44:08.638Z,96757.90
2018-12-14T02:46:36.051Z,96752.95
2018-12-14T02:49:03.558Z,96753.87
2018-12-14T02:51:31.447Z,96755.95
2018-12-14T02:53:58.834Z,96755.13
2018-12-14T02:56:26.595Z,96747.72
2018-12-14T02:58:54.011Z,96747.59
2018-12-14T03:01:21.425Z,96748.83
2018-12-14T03:03:48.859Z,96744.95
2018-12-14T03:06:16.352Z,96743.28
2018-12-14T03:08:43.757Z,96748.83
2018-12-14T03:11:11.366Z,96749.90
2018-12-14T03:13:38.831Z,96753.92
2018-12-14T03:16:06.335Z,96751.70
2018-12-14T03:18:33.850Z,96752.45
2018-12-14T03:21:01.581Z,96747.09
2018-12-14T03:23:29.162Z,96754.85
2018-12-14T03:25:56.580Z,96752.81
2018-12-14T03:28:24.030Z,96752.44
2018-12-14T03:30:51.462Z,96751.47
2018-12-14T03:33:19.020Z,96749.39
2018-12-14T03:35:46.609Z,96744.45
2018-12-14T03:38:14.001Z,96756.11
2018-12-14T03:40:41.439Z,96751.61
2018-12-14T03:43:08.872Z,96748.28
2018-12-14T03:45:36.269Z,96745.01
2018-12-14T03:48:03.717Z,96749.62
2018-12-14T03:50:31.680Z,96751.25
2018-12-14T03:52:59.095Z,96743.48
2018-12-14T03:55:26.620Z,96750.19
2018-12-14T03:57:54.032Z,96745.73
2018-12-14T04:00:21.447Z,96749.27
2018-12-14T04:02:48.878Z,96752.27
2018-12-14T04:05:16.305Z,96755.00
2018-12-14T04:07:43.718Z,96753.94
2018-12-14T04:10:11.127Z,96756.38
2018-12-14T04:12:41.803Z,96759.72
2018-12-14T04:15:06.281Z,96758.55
2018-12-14T04:17:33.715Z,96765.49
2018-12-14T04:20:01.151Z,96760.09
2018-12-14T04:22:28.590Z,96756.52
2018-12-14T04:24:56.036Z,96760.50
2018-12-14T04:27:23.447Z,96762.81
2018-12-14T04:29:50.854Z,96765.31
2018-12-14T04:32:18.260Z,96771.14
2018-12-14T04:34:45.671Z,96767.77
2018-12-14T04:37:13.188Z,96769.01
2018-12-14T04:39:40.602Z,96770.54
2018-12-14T04:42:08.022Z,96768.13
2018-12-14T04:44:35.433Z,96769.70
2018-12-14T04:47:02.867Z,96775.30
2018-12-14T04:49:30.268Z,96772.33
2018-12-14T04:51:57.671Z,96771.09
2018-12-14T04:54:25.080Z,96771.69
2018-12-14T04:56:53.099Z,96772.30
2018-12-14T04:59:20.516Z,96777.76
2018-12-14T05:01:47.959Z,96774.09
2018-12-14T05:04:15.363Z,96780.66
2018-12-14T05:06:42.782Z,96783.38
2018-12-14T05:09:10.189Z,96788.16
2018-12-14T05:11:39.238Z,96783.71
2018-12-14T05:14:05.166Z,96790.47
2018-12-14T05:16:32.556Z,96794.57
2018-12-14T05:19:00.013Z,96790.91
2018-12-14T05:21:27.893Z,96794.00
2018-12-14T05:23:55.312Z,96793.25
2018-12-14T05:26:23.731Z,96792.40
2018-12-14T05:28:51.172Z,96788.25
2018-12-14T05:31:18.597Z,96787.82
2018-12-14T05:33:46.037Z,96792.59
2018-12-14T05:36:13.437Z,96793.75
2018-12-14T05:38:40.895Z,96799.62
2018-12-14T05:41:08.311Z,96793.85
2018-12-14T05:43:35.736Z,96798.47
2018-12-14T05:46:03.379Z,96797.36
2018-12-14T05:48:30.806Z,96802.55
2018-12-14T05:50:58.225Z,96799.21
2018-12-14T05:53:25.631Z,96802.34
2018-12-14T05:55:53.425Z,96800.69
2018-12-14T05:58:20.827Z,96806.52
2018-12-14T06:00:48.234Z,96804.44
2018-12-14T06:03:15.747Z,96811.12
2018-12-14T06:05:43.172Z,96815.44
2018-12-14T06:08:10.760Z,96814.28
2018-12-14T06:10:38.310Z,96818.26
2018-12-14T06:13:09.097Z,96813.44
2018-12-14T06:15:33.190Z,96822.02
2018-12-14T06:18:00.687Z,96823.86
2018-12-14T06:20:29.036Z,96821.63
2018-12-14T06:22:56.461Z,96820.69
2018-12-14T06:25:24.581Z,96822.86
2018-12-14T06:27:52.016Z,96827.45
2018-12-14T06:30:19.447Z,96829.75
2018-12-14T06:32:46.875Z,96830.91
2018-12-14T06:35:14.446Z,96833.64
2018-12-14T06:37:41.863Z,96827.57
2018-12-14T06:40:09.269Z,96834.77
2018-12-14T06:42:37.491Z,96831.39
2018-12-14T06:45:04.948Z,96841.02
2018-12-14T06:47:32.386Z,96839.63
2018-12-14T06:49:59.819Z,96841.38
2018-12-14T06:52:27.238Z,96854.79
2018-12-14T06:54:54.636Z,96850.86
2018-12-14T06:57:22.599Z,96849.09
2018-12-14T06:59:49.995Z,96855.41
2018-12-14T07:02:17.436Z,96853.97
2018-12-14T07:04:44.884Z,96862.38
2018-12-14T07:07:12.289Z,96855.33
2018-12-14T07:09:39.794Z,96861.05
2018-12-14T07:12:07.364Z,96863.48
2018-12-14T07:14:34.841Z,96859.97
2018-12-14T07:17:02.340Z,96860.06
2018-12-14T07:19:29.829Z,96864.02
2018-12-14T07:21:57.230Z,96863.30
2018-12-14T07:24:24.739Z,96869.10
2018-12-14T07:26:52.127Z,96869.47
2018-12-14T07:29:19.654Z,96882.09
2018-12-14T07:31:47.191Z,96882.42
2018-12-14T07:34:14.744Z,96884.05
2018-12-14T07:36:42.262Z,96886.13
2018-12-14T07:39:09.705Z,96895.11
2018-12-14T07:41:37.116Z,96906.66
2018-12-14T07:44:04.533Z,96901.64
2018-12-14T07:46:31.991Z,96910.92
2018-12-14T07:48:59.413Z,96914.44
2018-12-14T07:51:26.832Z,96907.92
2018-12-14T07:53:54.242Z,96910.92
2018-12-14T07:56:21.655Z,96912.30
2018-12-14T07:58:49.129Z,96917.60
2018-12-14T08:01:16.617Z,96924.66
2018-12-14T08:03:44.032Z,96927.67
2018-12-14T08:06:12.041Z,96928.50
2018-12-14T08:08:39.461Z,96934.19
2018-12-14T08:11:06.863Z,96931.89
2018-12-14T08:13:34.892Z,96942.66
2018-12-14T08:16:01.744Z,96948.71
2018-12-14T08:18:29.792Z,96949.50
2018-12-14T08:20:57.179Z,96950.88
2018-12-14T08:23:24.600Z,96955.61
2018-12-14T08:25:52.618Z,96969.09
2018-12-14T08:28:20.036Z,96970.80
2018-12-14T08:30:47.532Z,96983.34
2018-12-14T08:33:14.947Z,96980.30
2018-12-14T08:35:42.397Z,96984.86
2018-12-14T08:38:09.830Z,96992.33
2018-12-14T08:40:37.245Z,96988.45
2018-12-14T08:43:04.665Z,96990.91
2018-12-14T08:45:32.121Z,96993.17
2018-12-14T08:47:59.555Z,96997.64
2018-12-14T08:50:26.963Z,96998.72
2018-12-14T08:52:55.237Z,97003.28
2018-12-14T08:55:22.660Z,97002.07
2018-12-14T08:57:50.060Z,97002.40
2018-12-14T09:00:17.489Z,97009.09
2018-12-14T09:02:44.906Z,97012.09
2018-12-14T09:05:12.516Z,97020.03
2018-12-14T09:07:39.931Z,97018.41
2018-12-14T09:10:07.331Z,97026.42
2018-12-14T09:12:34.767Z,97028.77
2018-12-14T09:15:02.181Z,97033.41
2018-12-14T09:17:29.790Z,97029.90
2018-12-14T09:19:57.249Z,97045.53
2018-12-14T09:22:25.466Z,97044.02
2018-12-14T09:24:52.935Z,97047.28
2018-12-14T09:27:20.355Z,97048.49
2018-12-14T09:29:47.764Z,97049.89
2018-12-14T09:32:15.303Z,97058.37
2018-12-14T09:34:42.744Z,97059.91
2018-12-14T09:37:10.165Z,97062.06
2018-12-14T09:39:38.283Z,97064.55
2018-12-14T09:42:05.798Z,97064.42
2018-12-14T09:44:34.022Z,97070.94
2018-12-14T09:47:01.464Z,97064.23
2018-12-14T09:49:29.054Z,97068.47
2018-12-14T09:51:56.467Z,97064.09
2018-12-14T09:54:23.877Z,97068.61
2018-12-14T09:56:51.304Z,97065.04
2018-12-14T09:59:18.755Z,97061.91
2018-12-14T10:01:46.296Z,97059.67
2018-12-14T10:04:14.257Z,97048.02
2018-12-14T10:06:41.701Z,97053.25
2018-12-14T10:09:09.124Z,97048.73
2018-12-14T10:11:36.616Z,97051.95
2018-12-14T10:14:04.135Z,97050.03
2018-12-14T10:16:31.103Z,97048.80
2018-12-14T10:18:58.755Z,97047.05
2018-12-14T10:21:26.279Z,97051.98
2018-12-14T10:23:53.711Z,97051.34
2018-12-14T10:26:21.156Z,97053.11
2018-12-14T10:28:48.721Z,97057.75
2018-12-14T10:31:16.148Z,97056.43
2018-12-14T10:33:43.698Z,97051.81
2018-12-14T10:36:11.110Z,97055.34
2018-12-14T10:38:38.675Z,97047.36
2018-12-14T10:41:06.194Z,97041.70
2018-12-14T10:43:33.617Z,97041.27
2018-12-14T10:46:01.097Z,97042.47
2018-12-14T10:48:29.578Z,97055.47
2018-12-14T10:50:56.983Z,97055.59
2018-12-14T10:53:24.411Z,97057.14
2018-12-14T10:55:51.819Z,97058.34
2018-12-14T10:58:20.449Z,97056.34
2018-12-14T11:00:52.393Z,97051.48
2018-12-14T11:03:19.797Z,97056.16
2018-12-14T11:05:47.246Z,97055.39
2018-12-14T11:08:14.676Z,97051.66
2018-12-14T11:10:42.091Z,97054.67
2018-12-14T11:13:09.635Z,97051.52
2018-12-14T11:15:37.201Z,97059.52
2018-12-14T11:18:04.605Z,97062.94
2018-12-14T11:20:32.105Z,97054.59
2018-12-14T11:22:59.528Z,97056.66
2018-12-14T11:25:26.929Z,97057.14
2018-12-14T11:27:54.457Z,97056.62
2018-12-14T11:30:23.478Z,97053.70
2018-12-14T11:32:50.916Z,97045.65
2018-12-14T11:35:18.482Z,97050.69
2018-12-14T11:37:45.908Z,97050.69
2018-12-14T11:40:13.457Z,97055.27
2018-12-14T11:42:40.865Z,97060.41
2018-12-14T11:45:08.341Z,97051.12
2018-12-14T11:47:35.967Z,97051.86
2018-12-14T11:50:03.983Z,97047.77
2018-12-14T11:52:31.396Z,97042.52
2018-12-14T11:54:58.813Z,97039.83
2018-12-14T11:57:26.265Z,97037.78
2018-12-14T11:59:53.860Z,97043.72
2018-12-14T12:02:21.561Z,97046.95
2018-12-14T12:04:48.994Z,97038.09
2018-12-14T12:07:16.446Z,97039.97
2018-12-14T12:09:43.911Z,97037.63
2018-12-14T12:12:11.345Z,97036.18
2018-12-14T12:14:38.886Z,97032.45
2018-12-14T12:17:06.323Z,97036.72
2018-12-14T12:19:33.731Z,97038.14
2018-12-14T12:22:00.694Z,97032.80
2018-12-14T12:24:28.119Z,97027.77
2018-12-14T12:26:55.533Z,97032.09
2018-12-14T12:29:23.033Z,97028.13
2018-12-14T12:31:50.432Z,97025.59
2018-12-14T12:34:17.933Z,97028.79
2018-12-14T12:36:45.475Z,97029.58
2018-12-14T12:39:13.399Z,97031.07
2018-12-14T12:41:40.823Z,97037.50
2018-12-14T12:44:08.610Z,97035.53
2018-12-14T12:46:36.067Z,97030.05
2018-12-14T12:49:03.494Z,97037.91
2018-12-14T12:51:30.904Z,97048.04
2018-12-14T12:53:58.366Z,97050.23
2018-12-14T12:56:25.795Z,97039.30
2018-12-14T12:58:54.422Z,97040.38
2018-12-14T13:01:20.758Z,97032.00
2018-12-14T13:03:48.855Z,97030.88
2018-12-14T13:06:16.269Z,97040.22
2018-12-14T13:08:43.717Z,97040.50
2018-12-14T13:11:11.222Z,97032.78
2018-12-14T13:13:38.634Z,97046.19
2018-12-14T13:16:06.059Z,97049.69
2018-12-14T13:18:34.363Z,97046.34
2018-12-14T13:21:01.761Z,97050.53
2018-12-14T13:23:29.248Z,97046.64
2018-12-14T13:25:56.687Z,97057.23
2018-12-14T13:28:24.263Z,97045.75
2018-12-14T13:30:51.774Z,97055.05
2018-12-14T13:33:19.268Z,97046.86
2018-12-14T13:35:46.669Z,97053.89
2018-12-14T13:38:14.089Z,97052.22
2018-12-14T13:40:41.553Z,97048.04
2018-12-14T13:43:09.217Z,97053.70
2018-12-14T13:45:36.837Z,97056.77
2018-12-14T13:48:04.307Z,97057.48
2018-12-14T13:50:31.931Z,97064.63
2018-12-14T13:52:59.464Z,97070.29
2018-12-14T13:55:26.912Z,97073.88
2018-12-14T13:57:54.343Z,97068.23
2018-12-14T14:00:21.760Z,97073.75
2018-12-14T14:02:49.179Z,97073.16
2018-12-14T14:05:16.585Z,97076.75
2018-12-14T14:07:44.071Z,97075.63
2018-12-14T14:10:11.500Z,97078.08
2018-12-14T14:12:38.911Z,97082.86
2018-12-14T14:15:06.177Z,97077.24
2018-12-14T14:17:33.165Z,97087.26
2018-12-14T14:20:00.563Z,97087.67
2018-12-14T14:22:28.086Z,97091.89
2018-12-14T14:24:55.842Z,97096.67
2018-12-14T14:27:23.269Z,97104.22
2018-12-14T14:29:50.705Z,97109.53
2018-12-14T14:32:18.294Z,97106.97
2018-12-14T14:34:45.695Z,97108.41
2018-12-14T14:37:13.185Z,97111.10
2018-12-14T14:39:41.002Z,97112.13
2018-12-14T14:42:07.957Z,97125.86
2018-12-14T14:44:34.975Z,97111.77
2018-12-14T14:47:01.987Z,97115.92
2018-12-14T14:49:29.055Z,97122.66
2018-12-14T14:51:56.041Z,97125.53
2018-12-14T14:54:22.989Z,97131.15
2018-12-14T14:56:49.925Z,97133.97
2018-12-14T14:59:16.879Z,97132.08
2018-12-14T15:01:43.834Z,97130.73
2018-12-14T15:04:10.790Z,97126.41
2018-12-14T15:06:38.216Z,97133.50
2018-12-14T15:09:05.159Z,97134.33
2018-12-14T15:11:32.118Z,97144.58
2018-12-14T15:13:59.160Z,97148.61
2018-12-14T15:16:26.103Z,97146.72
2018-12-14T15:18:53.070Z,97152.34
2018-12-14T15:21:20.076Z,97145.63
2018-12-14T15:23:47.025Z,97157.15
2018-12-14T15:26:14.044Z,97160.78
2018-12-14T15:28:41.020Z,97164.06
2018-12-14T15:31:08.156Z,97173.22
2018-12-14T15:33:35.115Z,97168.91
2018-12-14T15:36:02.087Z,97176.74
2018-12-14T15:38:29.143Z,97174.33
2018-12-14T15:40:56.123Z,97176.20
2018-12-14T15:43:23.103Z,97180.00
2018-12-14T15:45:50.113Z,97187.29
2018-12-14T15:48:17.087Z,97192.23
2018-12-14T15:50:44.569Z,97197.24
2018-12-14T15:53:11.515Z,97195.57
2018-12-14T15:55:38.461Z,97197.03
2018-12-14T15:58:06.957Z,97202.59
2018-12-14T16:00:35.034Z,97209.33
2018-12-14T16:03:02.819Z,97217.03
2018-12-14T16:05:29.782Z,97219.54
2018-12-14T16:07:56.764Z,97230.59
2018-12-14T16:10:23.714Z,97231.27
2018-12-14T16:12:50.740Z,97224.88
2018-12-14T16:15:20.261Z,97239.31
2018-12-14T16:17:44.889Z,97239.36
2018-12-14T16:20:11.924Z,97250.62
2018-12-14T16:22:39.268Z,97249.41
2018-12-14T16:25:06.480Z,97260.83
2018-12-14T16:27:33.533Z,97256.09
2018-12-14T16:30:00.564Z,97262.38
2018-12-14T16:32:27.591Z,97267.53
2018-12-14T16:34:54.589Z,97268.33
2018-12-14T16:37:21.568Z,97283.98
2018-12-14T16:39:48.867Z,97287.87
2018-12-14T16:42:16.281Z,97292.10
2018-12-14T16:44:43.694Z,97293.20
2018-12-14T16:47:11.194Z,97297.42
2018-12-14T16:49:39.087Z,97300.34
2018-12-14T16:52:06.519Z,97293.56
2018-12-14T16:54:33.977Z,97298.13
2018-12-14T16:57:01.410Z,97303.95
2018-12-14T16:59:28.810Z,97300.44
2018-12-14T17:01:56.354Z,97310.27
2018-12-14T17:04:23.756Z,97311.41
2018-12-14T17:06:51.231Z,97313.62
2018-12-14T17:09:18.797Z,97313.59
2018-12-14T17:11:46.271Z,97312.83
2018-12-14T17:14:13.801Z,97314.12
2018-12-14T17:16:41.225Z,97310.78
2018-12-14T17:19:08.747Z,97316.14
2018-12-14T17:21:36.221Z,97321.49
2018-12-14T17:24:03.969Z,97323.37
2018-12-14T17:26:31.116Z,97314.12
2018-12-14T17:28:58.130Z,97313.25
2018-12-14T17:31:25.167Z,97324.51
2018-12-14T17:33:53.434Z,97324.21
2018-12-14T17:36:20.833Z,97330.84
2018-12-14T17:38:48.251Z,97334.17
2018-12-14T17:41:15.725Z,97331.50
2018-12-14T17:43:42.734Z,97340.62
2018-12-14T17:46:10.793Z,97332.06
2018-12-14T17:48:37.735Z,97331.83
2018-12-14T17:51:05.181Z,97337.48
2018-12-14T17:53:33.210Z,97334.28
2018-12-14T17:56:01.301Z,97331.77
2018-12-14T17:58:29.170Z,97343.09
2018-12-14T18:00:58.644Z,97341.59
2018-12-14T18:03:26.760Z,97345.02
2018-12-14T18:05:54.544Z,97342.09
2018-12-14T18:08:21.741Z,97341.59
2018-12-14T18:10:48.673Z,97352.05
2018-12-14T18:13:16.080Z,97350.37
2018-12-14T18:15:46.310Z,97359.07
2018-12-14T18:18:11.697Z,97359.80
2018-12-14T18:20:38.903Z,97363.03
2018-12-14T18:23:06.216Z,97365.82
2018-12-14T18:25:33.338Z,97365.14
2018-12-14T18:28:00.582Z,97364.34
2018-12-14T18:30:27.636Z,97362.09
2018-12-14T18:32:54.756Z,97366.70
2018-12-14T18:35:21.734Z,97370.90
2018-12-14T18:37:50.031Z,97372.39
2018-12-14T18:40:17.071Z,97381.73
2018-12-14T18:42:44.775Z,97374.48
2018-12-14T18:45:11.830Z,97377.99
2018-12-14T18:47:39.035Z,97382.19
2018-12-14T18:50:07.290Z,97387.69
2018-12-14T18:52:34.640Z,97388.86
2018-12-14T18:55:02.118Z,97385.51
2018-12-14T18:57:30.960Z,97382.80
2018-12-14T18:59:58.589Z,97388.83
2018-12-14T19:02:27.139Z,97389.09
2018-12-14T19:04:54.788Z,97395.39
2018-12-14T19:07:22.295Z,97393.14
2018-12-14T19:09:51.014Z,97393.79
2018-12-14T19:12:18.716Z,97396.80
2018-12-14T19:14:46.865Z,97395.05
2018-12-14T19:17:14.458Z,97399.12
2018-12-14T19:19:41.958Z,97399.02
2018-12-14T19:22:09.784Z,97396.69
2018-12-14T19:24:37.717Z,97397.88
2018-12-14T19:27:05.501Z,97407.87
2018-12-14T19:29:33.440Z,97405.08
2018-12-14T19:32:00.960Z,97413.05
2018-12-14T19:34:31.385Z,97408.85
2018-12-14T19:36:55.809Z,97414.77
2018-12-14T19:39:23.867Z,97410.08
2018-12-14T19:41:51.396Z,97410.45
2018-12-14T19:44:19.074Z,97417.20
2018-12-14T19:46:47.612Z,97415.41
2018-12-14T19:49:19.759Z,97413.19
2018-12-14T19:51:48.669Z,97409.52
2018-12-14T19:54:16.333Z,97420.62
2018-12-14T19:56:43.862Z,97425.73
2018-12-14T19:59:10.812Z,97428.22
2018-12-14T20:01:38.588Z,97426.54
2018-12-14T20:04:06.740Z,97426.50
2018-12-14T20:06:34.210Z,97428.29
2018-12-14T20:09:01.636Z,97433.52
2018-12-14T20:11:29.064Z,97434.46
2018-12-14T20:13:56.491Z,97430.78
2018-12-14T20:16:23.888Z,97438.36
2018-12-14T20:18:51.321Z,97435.48
2018-12-14T20:21:18.737Z,97440.74
2018-12-14T20:23:46.139Z,97441.62
2018-12-14T20:26:13.603Z,97448.20
2018-12-14T20:28:41.032Z,97444.31
2018-12-14T20:31:08.461Z,97443.97
2018-12-14T20:33:35.869Z,97447.29
2018-12-14T20:36:03.291Z,97445.12
2018-12-14T20:38:30.721Z,97446.23
2018-12-14T20:40:58.203Z,97441.66
2018-12-14T20:43:25.615Z,97446.59
2018-12-14T20:45:53.093Z,97444.77
2018-12-14T20:48:20.495Z,97444.83
2018-12-14T20:50:47.903Z,97438.84
2018-12-14T20:53:15.576Z,97438.95
2018-12-14T20:55:43.769Z,97440.91
2018-12-14T20:58:11.232Z,97431.27
2018-12-14T21:00:38.702Z,97441.36
2018-12-14T21:03:06.267Z,97445.33
2018-12-14T21:05:33.735Z,97436.64
2018-12-14T21:08:01.537Z,97435.03
2018-12-14T21:10:29.166Z,97435.23
2018-12-14T21:12:56.649Z,97435.77
2018-12-14T21:15:24.188Z,97436.78
2018-12-14T21:17:52.416Z,97423.65
2018-12-14T21:20:19.849Z,97419.34
2018-12-14T21:22:47.430Z,97420.42
2018-12-14T21:25:14.862Z,97419.52
2018-12-14T21:27:42.986Z,97409.66
2018-12-14T21:30:10.637Z,97412.45
2018-12-14T21:32:38.071Z,97408.25
2018-12-14T21:35:06.363Z,97414.16
2018-12-14T21:37:33.891Z,97411.94
2018-12-14T21:40:01.375Z,97408.77
2018-12-14T21:42:29.194Z,97402.45
2018-12-14T21:44:56.618Z,97397.16
2018-12-14T21:47:25.512Z,97394.18
2018-12-14T21:49:53.256Z,97390.60
2018-12-14T21:52:20.692Z,97393.69
2018-12-14T21:54:48.255Z,97388.02
2018-12-14T21:57:16.859Z,97388.37
2018-12-14T21:59:44.479Z,97387.05
2018-12-14T22:02:11.928Z,97387.22
2018-12-14T22:04:40.765Z,97388.10
2018-12-14T22:07:08.424Z,97386.39
2018-12-14T22:09:36.045Z,97392.48
2018-12-14T22:12:03.772Z,97399.63
2018-12-14T22:14:31.316Z,97398.67
2018-12-14T22:16:58.963Z,97401.16
2018-12-14T22:19:26.566Z,97395.17
2018-12-14T22:21:54.323Z,97402.63
2018-12-14T22:24:21.808Z,97410.79
2018-12-14T22:26:49.344Z,97416.12
2018-12-14T22:29:17.287Z,97409.67
2018-12-14T22:31:44.691Z,97410.80
2018-12-14T22:34:12.199Z,97415.17
2018-12-14T22:36:39.610Z,97414.83
2018-12-14T22:39:07.293Z,97418.98
2018-12-14T22:41:35.267Z,97417.20
2018-12-14T22:44:02.690Z,97421.02
2018-12-14T22:46:30.371Z,97422.80
2018-12-14T22:48:57.831Z,97412.02
2018-12-14T22:51:26.400Z,97413.88
2018-12-14T22:53:53.948Z,97422.63
2018-12-14T22:56:21.472Z,97431.17
2018-12-14T22:58:49.116Z,97431.38
2018-12-14T23:01:16.548Z,97433.34
2018-12-14T23:03:44.126Z,97432.11
2018-12-14T23:06:11.593Z,97432.98
2018-12-14T23:08:38.994Z,97441.40
2018-12-14T23:11:06.557Z,97434.95
2018-12-14T23:13:34.029Z,97429.48
2018-12-14T23:16:01.538Z,97429.66
2018-12-14T23:18:30.003Z,97428.91
2018-12-14T23:20:57.768Z,97438.69
2018-12-14T23:23:25.650Z,97444.08
2018-12-14T23:25:53.300Z,97437.31
2018-12-14T23:28:21.555Z,97435.17
2018-12-14T23:30:48.970Z,97428.77
2018-12-14T23:33:16.499Z,97435.07
2018-12-14T23:35:44.058Z,97432.41
2018-12-14T23:38:11.757Z,97427.89
2018-12-14T23:40:39.299Z,97435.66
2018-12-14T23:43:07.932Z,97437.24
2018-12-14T23:45:36.300Z,97438.64
2018-12-14T23:48:04.068Z,97443.66
2018-12-14T23:50:32.527Z,97444.81
2018-12-14T23:53:01.025Z,97451.36
2018-12-14T23:55:28.640Z,97447.44
2018-12-14T23:57:56.365Z,97451.36
